sensor_id;sensor_type;location;lat;lon;timestamp;pressure;altitude;pressure_sealevel;temperature;humidity
74790;BME280;63318;52.406;13.416;2023-01-06T00:01:07;101750.33;;;2.93;79.60
74790;BME280;63318;52.406;13.416;2023-01-06T00:03:35;101747.30;;;2.94;79.80
74790;BME280;63318;52.406;13.416;2023-01-06T00:06:05;101747.13;;;2.95;79.87
74790;BME280;63318;52.406;13.416;2023-01-06T00:08:35;101750.55;;;2.95;80.04
74790;BME280;63318;52.406;13.416;2023-01-06T00:11:07;101757.55;;;2.96;79.97
74790;BME280;63318;52.406;13.416;2023-01-06T00:13:36;101755.67;;;2.97;79.87
74790;BME280;63318;52.406;13.416;2023-01-06T00:16:06;101753.30;;;2.96;79.90
74790;BME280;63318;52.406;13.416;2023-01-06T00:18:35;101752.45;;;2.96;80.20
74790;BME280;63318;52.406;13.416;2023-01-06T00:21:05;101755.08;;;2.96;80.08
74790;BME280;63318;52.406;13.416;2023-01-06T00:23:34;101754.43;;;2.95;80.19
74790;BME280;63318;52.406;13.416;2023-01-06T00:26:04;101749.53;;;2.93;80.00
74790;BME280;63318;52.406;13.416;2023-01-06T00:28:33;101746.98;;;2.92;80.19
74790;BME280;63318;52.406;13.416;2023-01-06T00:31:07;101750.61;;;2.90;80.21
74790;BME280;63318;52.406;13.416;2023-01-06T00:33:36;101757.98;;;2.89;80.40
74790;BME280;63318;52.406;13.416;2023-01-06T00:36:06;101747.95;;;2.87;80.10
74790;BME280;63318;52.406;13.416;2023-01-06T00:38:35;101747.65;;;2.85;80.23
74790;BME280;63318;52.406;13.416;2023-01-06T00:41:05;101746.59;;;2.83;80.19
74790;BME280;63318;52.406;13.416;2023-01-06T00:43:33;101734.54;;;2.80;80.01
74790;BME280;63318;52.406;13.416;2023-01-06T00:46:03;101734.23;;;2.78;80.24
74790;BME280;63318;52.406;13.416;2023-01-06T00:48:31;101743.91;;;2.77;80.26
74790;BME280;63318;52.406;13.416;2023-01-06T00:51:01;101732.00;;;2.76;80.40
74790;BME280;63318;52.406;13.416;2023-01-06T00:53:30;101731.95;;;2.75;80.52
74790;BME280;63318;52.406;13.416;2023-01-06T00:56:01;101729.71;;;2.75;80.65
74790;BME280;63318;52.406;13.416;2023-01-06T00:58:31;101736.41;;;2.74;80.62
74790;BME280;63318;52.406;13.416;2023-01-06T01:01:02;101736.34;;;2.75;80.98
74790;BME280;63318;52.406;13.416;2023-01-06T01:03:31;101741.41;;;2.75;80.74
74790;BME280;63318;52.406;13.416;2023-01-06T01:06:01;101746.10;;;2.76;80.64
74790;BME280;63318;52.406;13.416;2023-01-06T01:08:30;101749.69;;;2.76;81.24
74790;BME280;63318;52.406;13.416;2023-01-06T01:11:03;101742.94;;;2.77;81.20
74790;BME280;63318;52.406;13.416;2023-01-06T01:13:31;101735.83;;;2.80;81.02
74790;BME280;63318;52.406;13.416;2023-01-06T01:16:04;101735.64;;;2.83;80.94
74790;BME280;63318;52.406;13.416;2023-01-06T01:18:32;101730.48;;;2.86;81.25
74790;BME280;63318;52.406;13.416;2023-01-06T01:21:01;101732.18;;;2.89;81.40
74790;BME280;63318;52.406;13.416;2023-01-06T01:23:29;101726.59;;;2.92;81.19
74790;BME280;63318;52.406;13.416;2023-01-06T01:25:58;101723.11;;;2.95;81.11
74790;BME280;63318;52.406;13.416;2023-01-06T01:28:26;101722.76;;;2.98;81.24
74790;BME280;63318;52.406;13.416;2023-01-06T01:31:00;101725.34;;;3.00;81.08
74790;BME280;63318;52.406;13.416;2023-01-06T01:33:30;101722.87;;;3.04;81.25
74790;BME280;63318;52.406;13.416;2023-01-06T01:36:05;101721.27;;;3.06;80.97
74790;BME280;63318;52.406;13.416;2023-01-06T01:38:34;101717.33;;;3.08;81.18
74790;BME280;63318;52.406;13.416;2023-01-06T01:41:03;101714.38;;;3.09;81.11
74790;BME280;63318;52.406;13.416;2023-01-06T01:43:45;101717.98;;;3.12;81.19
74790;BME280;63318;52.406;13.416;2023-01-06T01:46:15;101722.89;;;3.13;81.08
74790;BME280;63318;52.406;13.416;2023-01-06T01:48:45;101721.35;;;3.15;81.08
74790;BME280;63318;52.406;13.416;2023-01-06T01:51:16;101721.14;;;3.17;81.23
74790;BME280;63318;52.406;13.416;2023-01-06T01:53:47;101721.66;;;3.18;81.20
74790;BME280;63318;52.406;13.416;2023-01-06T01:56:20;101716.90;;;3.19;81.33
74790;BME280;63318;52.406;13.416;2023-01-06T01:58:54;101712.80;;;3.21;81.20
74790;BME280;63318;52.406;13.416;2023-01-06T02:01:24;101706.94;;;3.23;81.39
74790;BME280;63318;52.406;13.416;2023-01-06T02:03:52;101704.16;;;3.24;81.31
74790;BME280;63318;52.406;13.416;2023-01-06T02:06:23;101701.69;;;3.26;81.24
74790;BME280;63318;52.406;13.416;2023-01-06T02:08:56;101701.77;;;3.28;81.26
74790;BME280;63318;52.406;13.416;2023-01-06T02:11:30;101692.61;;;3.30;81.22
74790;BME280;63318;52.406;13.416;2023-01-06T02:14:09;101689.00;;;3.32;81.26
74790;BME280;63318;52.406;13.416;2023-01-06T02:16:45;101690.95;;;3.34;81.37
74790;BME280;63318;52.406;13.416;2023-01-06T02:19:37;101698.40;;;3.36;81.49
74790;BME280;63318;52.406;13.416;2023-01-06T02:22:20;101694.83;;;3.38;81.39
74790;BME280;63318;52.406;13.416;2023-01-06T02:25:10;101686.33;;;3.40;81.41
74790;BME280;63318;52.406;13.416;2023-01-06T02:28:17;101682.02;;;3.42;81.52
74790;BME280;63318;52.406;13.416;2023-01-06T02:33:53;101676.02;;;3.47;81.71
74790;BME280;63318;52.406;13.416;2023-01-06T02:36:30;101668.96;;;3.49;81.50
74790;BME280;63318;52.406;13.416;2023-01-06T02:39:13;101666.27;;;3.50;81.48
74790;BME280;63318;52.406;13.416;2023-01-06T02:41:56;101675.35;;;3.50;81.26
74790;BME280;63318;52.406;13.416;2023-01-06T02:44:30;101674.02;;;3.52;81.38
74790;BME280;63318;52.406;13.416;2023-01-06T02:47:14;101668.70;;;3.53;81.29
74790;BME280;63318;52.406;13.416;2023-01-06T02:49:55;101666.48;;;3.54;81.41
74790;BME280;63318;52.406;13.416;2023-01-06T02:52:32;101659.82;;;3.55;81.32
74790;BME280;63318;52.406;13.416;2023-01-06T02:55:06;101655.00;;;3.55;81.28
74790;BME280;63318;52.406;13.416;2023-01-06T02:57:40;101650.61;;;3.55;81.35
74790;BME280;63318;52.406;13.416;2023-01-06T03:00:16;101652.27;;;3.56;81.38
74790;BME280;63318;52.406;13.416;2023-01-06T03:02:51;101652.05;;;3.57;81.26
74790;BME280;63318;52.406;13.416;2023-01-06T03:05:26;101645.77;;;3.57;81.47
74790;BME280;63318;52.406;13.416;2023-01-06T03:08:02;101654.55;;;3.58;81.62
74790;BME280;63318;52.406;13.416;2023-01-06T03:10:32;101655.83;;;3.60;81.48
74790;BME280;63318;52.406;13.416;2023-01-06T03:13:07;101649.78;;;3.61;81.38
74790;BME280;63318;52.406;13.416;2023-01-06T03:15:37;101651.44;;;3.62;81.55
74790;BME280;63318;52.406;13.416;2023-01-06T03:18:06;101647.05;;;3.64;81.28
74790;BME280;63318;52.406;13.416;2023-01-06T03:20:35;101645.53;;;3.65;81.30
74790;BME280;63318;52.406;13.416;2023-01-06T03:23:08;101645.23;;;3.66;81.48
74790;BME280;63318;52.406;13.416;2023-01-06T03:25:39;101639.52;;;3.68;81.48
74790;BME280;63318;52.406;13.416;2023-01-06T03:28:07;101633.13;;;3.69;81.50
74790;BME280;63318;52.406;13.416;2023-01-06T03:30:40;101628.46;;;3.70;81.30
74790;BME280;63318;52.406;13.416;2023-01-06T03:33:18;101623.45;;;3.71;81.28
74790;BME280;63318;52.406;13.416;2023-01-06T03:35:56;101619.90;;;3.72;81.47
74790;BME280;63318;52.406;13.416;2023-01-06T03:38:35;101619.92;;;3.73;81.26
74790;BME280;63318;52.406;13.416;2023-01-06T03:41:11;101618.88;;;3.74;81.38
74790;BME280;63318;52.406;13.416;2023-01-06T03:43:51;101618.67;;;3.76;81.46
74790;BME280;63318;52.406;13.416;2023-01-06T03:46:27;101610.17;;;3.77;81.46
74790;BME280;63318;52.406;13.416;2023-01-06T03:49:06;101605.15;;;3.78;81.38
74790;BME280;63318;52.406;13.416;2023-01-06T03:51:42;101600.62;;;3.79;81.30
74790;BME280;63318;52.406;13.416;2023-01-06T03:54:21;101600.55;;;3.81;81.35
74790;BME280;63318;52.406;13.416;2023-01-06T03:56:58;101597.24;;;3.82;81.60
74790;BME280;63318;52.406;13.416;2023-01-06T03:59:32;101591.71;;;3.84;81.40
74790;BME280;63318;52.406;13.416;2023-01-06T04:02:03;101593.86;;;3.85;81.63
74790;BME280;63318;52.406;13.416;2023-01-06T04:04:31;101590.58;;;3.87;81.51
74790;BME280;63318;52.406;13.416;2023-01-06T04:07:00;101585.69;;;3.88;81.42
74790;BME280;63318;52.406;13.416;2023-01-06T04:09:28;101584.23;;;3.89;81.45
74790;BME280;63318;52.406;13.416;2023-01-06T04:11:56;101586.00;;;3.90;81.45
74790;BME280;63318;52.406;13.416;2023-01-06T04:14:25;101581.87;;;3.91;81.63
74790;BME280;63318;52.406;13.416;2023-01-06T04:16:53;101584.40;;;3.93;81.39
74790;BME280;63318;52.406;13.416;2023-01-06T04:19:21;101585.17;;;3.94;81.39
74790;BME280;63318;52.406;13.416;2023-01-06T04:21:50;101584.06;;;3.95;81.59
74790;BME280;63318;52.406;13.416;2023-01-06T04:24:19;101581.20;;;3.96;81.52
74790;BME280;63318;52.406;13.416;2023-01-06T04:26:47;101582.13;;;3.97;81.56
74790;BME280;63318;52.406;13.416;2023-01-06T04:29:15;101582.44;;;3.99;81.58
74790;BME280;63318;52.406;13.416;2023-01-06T04:31:43;101580.05;;;4.00;81.82
74790;BME280;63318;52.406;13.416;2023-01-06T04:34:11;101576.55;;;4.02;81.81
74790;BME280;63318;52.406;13.416;2023-01-06T04:36:39;101574.00;;;4.03;81.79
74790;BME280;63318;52.406;13.416;2023-01-06T04:39:08;101566.48;;;4.04;81.62
74790;BME280;63318;52.406;13.416;2023-01-06T04:41:36;101558.24;;;4.06;81.77
74790;BME280;63318;52.406;13.416;2023-01-06T04:44:04;101556.25;;;4.07;81.67
74790;BME280;63318;52.406;13.416;2023-01-06T04:46:32;101555.70;;;4.08;81.83
74790;BME280;63318;52.406;13.416;2023-01-06T04:49:01;101552.52;;;4.10;81.85
74790;BME280;63318;52.406;13.416;2023-01-06T04:51:29;101550.20;;;4.11;81.91
74790;BME280;63318;52.406;13.416;2023-01-06T04:53:57;101553.02;;;4.11;81.82
74790;BME280;63318;52.406;13.416;2023-01-06T04:56:25;101547.29;;;4.13;81.95
74790;BME280;63318;52.406;13.416;2023-01-06T04:58:55;101538.02;;;4.14;81.64
74790;BME280;63318;52.406;13.416;2023-01-06T05:01:24;101531.67;;;4.14;81.82
74790;BME280;63318;52.406;13.416;2023-01-06T05:03:53;101528.03;;;4.16;81.84
74790;BME280;63318;52.406;13.416;2023-01-06T05:06:21;101522.88;;;4.17;81.80
74790;BME280;63318;52.406;13.416;2023-01-06T05:08:50;101520.63;;;4.19;81.81
74790;BME280;63318;52.406;13.416;2023-01-06T05:11:19;101516.83;;;4.20;81.99
74790;BME280;63318;52.406;13.416;2023-01-06T05:13:49;101514.15;;;4.20;82.14
74790;BME280;63318;52.406;13.416;2023-01-06T05:16:19;101511.06;;;4.22;82.23
74790;BME280;63318;52.406;13.416;2023-01-06T05:18:47;101510.16;;;4.23;82.40
74790;BME280;63318;52.406;13.416;2023-01-06T05:21:16;101507.08;;;4.24;82.44
74790;BME280;63318;52.406;13.416;2023-01-06T05:23:44;101502.89;;;4.25;82.27
74790;BME280;63318;52.406;13.416;2023-01-06T05:26:17;101500.98;;;4.26;82.47
74790;BME280;63318;52.406;13.416;2023-01-06T05:28:46;101499.89;;;4.27;82.64
74790;BME280;63318;52.406;13.416;2023-01-06T05:31:15;101499.46;;;4.27;82.64
74790;BME280;63318;52.406;13.416;2023-01-06T05:33:43;101500.42;;;4.28;82.68
74790;BME280;63318;52.406;13.416;2023-01-06T05:36:13;101495.20;;;4.29;82.65
74790;BME280;63318;52.406;13.416;2023-01-06T05:38:42;101493.83;;;4.31;82.86
74790;BME280;63318;52.406;13.416;2023-01-06T05:41:11;101489.63;;;4.32;82.77
74790;BME280;63318;52.406;13.416;2023-01-06T05:43:40;101490.31;;;4.34;82.86
74790;BME280;63318;52.406;13.416;2023-01-06T05:46:10;101488.45;;;4.35;83.04
74790;BME280;63318;52.406;13.416;2023-01-06T05:48:40;101484.72;;;4.36;82.98
74790;BME280;63318;52.406;13.416;2023-01-06T05:51:10;101478.79;;;4.37;83.28
74790;BME280;63318;52.406;13.416;2023-01-06T05:53:42;101473.92;;;4.38;83.21
74790;BME280;63318;52.406;13.416;2023-01-06T05:56:13;101467.79;;;4.38;83.50
74790;BME280;63318;52.406;13.416;2023-01-06T05:58:44;101466.73;;;4.40;83.33
74790;BME280;63318;52.406;13.416;2023-01-06T06:01:17;101461.43;;;4.41;83.53
74790;BME280;63318;52.406;13.416;2023-01-06T06:03:50;101463.66;;;4.42;83.55
74790;BME280;63318;52.406;13.416;2023-01-06T06:06:20;101463.89;;;4.43;83.65
74790;BME280;63318;52.406;13.416;2023-01-06T06:08:49;101464.30;;;4.44;83.78
74790;BME280;63318;52.406;13.416;2023-01-06T06:11:18;101465.06;;;4.45;83.73
74790;BME280;63318;52.406;13.416;2023-01-06T06:13:47;101462.64;;;4.46;83.67
74790;BME280;63318;52.406;13.416;2023-01-06T06:16:17;101465.10;;;4.47;83.88
74790;BME280;63318;52.406;13.416;2023-01-06T06:18:49;101464.29;;;4.49;83.74
74790;BME280;63318;52.406;13.416;2023-01-06T06:21:20;101461.44;;;4.50;84.00
74790;BME280;63318;52.406;13.416;2023-01-06T06:23:53;101455.34;;;4.51;83.99
74790;BME280;63318;52.406;13.416;2023-01-06T06:26:22;101454.35;;;4.53;83.89
74790;BME280;63318;52.406;13.416;2023-01-06T06:28:50;101450.42;;;4.55;84.03
74790;BME280;63318;52.406;13.416;2023-01-06T06:31:20;101443.27;;;4.56;84.16
74790;BME280;63318;52.406;13.416;2023-01-06T06:33:50;101438.64;;;4.58;84.39
74790;BME280;63318;52.406;13.416;2023-01-06T06:36:19;101434.86;;;4.58;84.47
74790;BME280;63318;52.406;13.416;2023-01-06T06:38:48;101438.01;;;4.59;84.31
74790;BME280;63318;52.406;13.416;2023-01-06T06:41:18;101438.84;;;4.61;84.43
74790;BME280;63318;52.406;13.416;2023-01-06T06:43:46;101436.08;;;4.63;84.54
74790;BME280;63318;52.406;13.416;2023-01-06T06:46:15;101433.02;;;4.65;84.62
74790;BME280;63318;52.406;13.416;2023-01-06T06:48:43;101423.71;;;4.66;84.75
74790;BME280;63318;52.406;13.416;2023-01-06T06:51:13;101417.23;;;4.66;84.74
74790;BME280;63318;52.406;13.416;2023-01-06T06:53:42;101417.66;;;4.67;84.76
74790;BME280;63318;52.406;13.416;2023-01-06T06:56:11;101412.77;;;4.68;84.93
74790;BME280;63318;52.406;13.416;2023-01-06T06:58:40;101406.64;;;4.68;84.93
74790;BME280;63318;52.406;13.416;2023-01-06T07:01:10;101406.45;;;4.69;84.96
74790;BME280;63318;52.406;13.416;2023-01-06T07:03:40;101410.35;;;4.70;85.04
74790;BME280;63318;52.406;13.416;2023-01-06T07:06:10;101412.37;;;4.72;84.99
74790;BME280;63318;52.406;13.416;2023-01-06T07:08:43;101413.42;;;4.73;85.20
74790;BME280;63318;52.406;13.416;2023-01-06T07:11:11;101408.24;;;4.75;85.28
74790;BME280;63318;52.406;13.416;2023-01-06T07:13:39;101402.02;;;4.76;85.29
74790;BME280;63318;52.406;13.416;2023-01-06T07:16:08;101399.85;;;4.77;85.24
74790;BME280;63318;52.406;13.416;2023-01-06T07:18:36;101398.12;;;4.78;85.40
74790;BME280;63318;52.406;13.416;2023-01-06T07:21:06;101401.80;;;4.79;85.32
74790;BME280;63318;52.406;13.416;2023-01-06T07:23:34;101405.30;;;4.80;85.61
74790;BME280;63318;52.406;13.416;2023-01-06T07:26:04;101399.23;;;4.81;85.48
74790;BME280;63318;52.406;13.416;2023-01-06T07:28:32;101400.55;;;4.82;85.56
74790;BME280;63318;52.406;13.416;2023-01-06T07:31:01;101397.91;;;4.84;85.64
74790;BME280;63318;52.406;13.416;2023-01-06T07:33:29;101399.48;;;4.85;85.68
74790;BME280;63318;52.406;13.416;2023-01-06T07:35:58;101404.13;;;4.85;85.78
74790;BME280;63318;52.406;13.416;2023-01-06T07:38:26;101410.22;;;4.86;85.76
74790;BME280;63318;52.406;13.416;2023-01-06T07:40:59;101408.19;;;4.88;85.74
74790;BME280;63318;52.406;13.416;2023-01-06T07:43:27;101409.14;;;4.89;85.79
74790;BME280;63318;52.406;13.416;2023-01-06T07:45:56;101400.33;;;4.90;85.79
74790;BME280;63318;52.406;13.416;2023-01-06T07:48:24;101398.67;;;4.91;85.71
74790;BME280;63318;52.406;13.416;2023-01-06T07:50:53;101390.83;;;4.92;85.72
74790;BME280;63318;52.406;13.416;2023-01-06T07:53:21;101389.00;;;4.93;86.03
74790;BME280;63318;52.406;13.416;2023-01-06T07:55:53;101399.58;;;4.95;85.99
74790;BME280;63318;52.406;13.416;2023-01-06T07:58:21;101408.85;;;4.97;86.17
74790;BME280;63318;52.406;13.416;2023-01-06T08:00:50;101410.01;;;4.99;86.22
74790;BME280;63318;52.406;13.416;2023-01-06T08:03:18;101403.06;;;5.02;86.19
74790;BME280;63318;52.406;13.416;2023-01-06T08:05:47;101406.30;;;5.04;86.29
74790;BME280;63318;52.406;13.416;2023-01-06T08:08:15;101408.59;;;5.06;86.40
74790;BME280;63318;52.406;13.416;2023-01-06T08:10:44;101400.00;;;5.08;86.39
74790;BME280;63318;52.406;13.416;2023-01-06T08:13:12;101392.58;;;5.09;86.32
74790;BME280;63318;52.406;13.416;2023-01-06T08:15:41;101390.41;;;5.10;86.38
74790;BME280;63318;52.406;13.416;2023-01-06T08:18:09;101387.14;;;5.13;86.45
74790;BME280;63318;52.406;13.416;2023-01-06T08:20:37;101376.79;;;5.14;86.46
74790;BME280;63318;52.406;13.416;2023-01-06T08:23:05;101379.57;;;5.17;86.40
74790;BME280;63318;52.406;13.416;2023-01-06T08:25:34;101376.58;;;5.18;86.57
74790;BME280;63318;52.406;13.416;2023-01-06T08:28:02;101376.77;;;5.21;86.54
74790;BME280;63318;52.406;13.416;2023-01-06T08:30:31;101381.25;;;5.23;86.64
74790;BME280;63318;52.406;13.416;2023-01-06T08:33:00;101384.16;;;5.25;86.69
74790;BME280;63318;52.406;13.416;2023-01-06T08:35:28;101378.16;;;5.27;86.72
74790;BME280;63318;52.406;13.416;2023-01-06T08:37:57;101366.28;;;5.31;86.84
74790;BME280;63318;52.406;13.416;2023-01-06T08:40:26;101357.65;;;5.33;86.84
74790;BME280;63318;52.406;13.416;2023-01-06T08:42:54;101354.49;;;5.36;86.80
74790;BME280;63318;52.406;13.416;2023-01-06T08:45:22;101367.60;;;5.39;86.95
74790;BME280;63318;52.406;13.416;2023-01-06T08:47:50;101368.08;;;5.42;86.98
74790;BME280;63318;52.406;13.416;2023-01-06T08:50:19;101368.48;;;5.44;87.03
74790;BME280;63318;52.406;13.416;2023-01-06T08:52:48;101369.05;;;5.46;87.14
74790;BME280;63318;52.406;13.416;2023-01-06T08:55:16;101348.99;;;5.49;87.00
74790;BME280;63318;52.406;13.416;2023-01-06T08:57:44;101351.72;;;5.52;87.09
74790;BME280;63318;52.406;13.416;2023-01-06T09:00:16;101336.94;;;5.55;87.04
74790;BME280;63318;52.406;13.416;2023-01-06T09:02:45;101333.77;;;5.57;87.14
74790;BME280;63318;52.406;13.416;2023-01-06T09:05:13;101326.32;;;5.61;87.14
74790;BME280;63318;52.406;13.416;2023-01-06T09:07:42;101325.30;;;5.63;87.23
74790;BME280;63318;52.406;13.416;2023-01-06T09:10:10;101323.96;;;5.67;87.31
74790;BME280;63318;52.406;13.416;2023-01-06T09:12:38;101332.41;;;5.71;87.21
74790;BME280;63318;52.406;13.416;2023-01-06T09:15:08;101339.13;;;5.74;87.35
74790;BME280;63318;52.406;13.416;2023-01-06T09:17:36;101335.52;;;5.77;87.45
74790;BME280;63318;52.406;13.416;2023-01-06T09:20:06;101349.45;;;5.80;87.45
74790;BME280;63318;52.406;13.416;2023-01-06T09:22:34;101350.89;;;5.83;87.35
74790;BME280;63318;52.406;13.416;2023-01-06T09:25:04;101356.20;;;5.86;87.52
74790;BME280;63318;52.406;13.416;2023-01-06T09:27:32;101357.98;;;5.90;87.53
74790;BME280;63318;52.406;13.416;2023-01-06T09:30:00;101346.61;;;5.93;87.69
74790;BME280;63318;52.406;13.416;2023-01-06T09:32:28;101341.83;;;5.96;87.71
74790;BME280;63318;52.406;13.416;2023-01-06T09:34:57;101332.98;;;6.00;87.53
74790;BME280;63318;52.406;13.416;2023-01-06T09:37:25;101324.87;;;6.03;87.63
74790;BME280;63318;52.406;13.416;2023-01-06T09:39:54;101320.65;;;6.08;87.74
74790;BME280;63318;52.406;13.416;2023-01-06T09:42:33;101318.67;;;6.12;87.86
74790;BME280;63318;52.406;13.416;2023-01-06T09:45:17;101323.20;;;6.18;87.96
74790;BME280;63318;52.406;13.416;2023-01-06T09:47:48;101313.27;;;6.24;88.10
74790;BME280;63318;52.406;13.416;2023-01-06T09:50:24;101307.01;;;6.30;88.03
74790;BME280;63318;52.406;13.416;2023-01-06T09:52:59;101303.95;;;6.36;87.98
74790;BME280;63318;52.406;13.416;2023-01-06T09:55:34;101296.48;;;6.40;87.94
74790;BME280;63318;52.406;13.416;2023-01-06T09:58:08;101293.77;;;6.44;88.07
74790;BME280;63318;52.406;13.416;2023-01-06T10:00:40;101293.49;;;6.48;88.15
74790;BME280;63318;52.406;13.416;2023-01-06T10:03:13;101289.92;;;6.53;88.06
74790;BME280;63318;52.406;13.416;2023-01-06T10:05:51;101281.02;;;6.56;88.07
74790;BME280;63318;52.406;13.416;2023-01-06T10:08:29;101273.96;;;6.61;88.04
74790;BME280;63318;52.406;13.416;2023-01-06T10:11:11;101274.13;;;6.64;88.19
74790;BME280;63318;52.406;13.416;2023-01-06T10:13:56;101273.98;;;6.69;88.13
74790;BME280;63318;52.406;13.416;2023-01-06T10:16:38;101260.36;;;6.72;88.13
74790;BME280;63318;52.406;13.416;2023-01-06T10:19:18;101250.79;;;6.76;88.24
74790;BME280;63318;52.406;13.416;2023-01-06T10:21:58;101248.64;;;6.80;88.39
74790;BME280;63318;52.406;13.416;2023-01-06T10:24:34;101251.25;;;6.84;88.28
74790;BME280;63318;52.406;13.416;2023-01-06T10:27:10;101241.91;;;6.89;88.42
74790;BME280;63318;52.406;13.416;2023-01-06T10:29:42;101236.04;;;6.92;88.60
74790;BME280;63318;52.406;13.416;2023-01-06T10:32:15;101228.73;;;6.96;88.34
74790;BME280;63318;52.406;13.416;2023-01-06T10:34:45;101225.27;;;7.01;88.65
74790;BME280;63318;52.406;13.416;2023-01-06T10:37:20;101224.11;;;7.06;88.39
74790;BME280;63318;52.406;13.416;2023-01-06T10:39:54;101221.92;;;7.12;88.34
74790;BME280;63318;52.406;13.416;2023-01-06T10:42:30;101216.60;;;7.17;88.62
74790;BME280;63318;52.406;13.416;2023-01-06T10:45:01;101209.15;;;7.25;88.64
74790;BME280;63318;52.406;13.416;2023-01-06T10:47:31;101209.37;;;7.33;88.44
74790;BME280;63318;52.406;13.416;2023-01-06T10:50:00;101201.74;;;7.40;88.71
74790;BME280;63318;52.406;13.416;2023-01-06T10:52:31;101200.80;;;7.47;88.55
74790;BME280;63318;52.406;13.416;2023-01-06T10:55:04;101196.95;;;7.55;88.63
74790;BME280;63318;52.406;13.416;2023-01-06T10:57:34;101189.30;;;7.62;88.76
74790;BME280;63318;52.406;13.416;2023-01-06T11:00:17;101188.63;;;7.68;88.60
74790;BME280;63318;52.406;13.416;2023-01-06T11:02:48;101187.80;;;7.74;88.66
74790;BME280;63318;52.406;13.416;2023-01-06T11:05:19;101190.17;;;7.80;88.65
74790;BME280;63318;52.406;13.416;2023-01-06T11:07:52;101192.13;;;7.86;88.58
74790;BME280;63318;52.406;13.416;2023-01-06T11:10:30;101189.37;;;7.92;88.68
74790;BME280;63318;52.406;13.416;2023-01-06T11:13:01;101188.17;;;7.98;88.49
74790;BME280;63318;52.406;13.416;2023-01-06T11:15:38;101188.50;;;8.04;88.79
74790;BME280;63318;52.406;13.416;2023-01-06T11:18:20;101186.11;;;8.09;88.71
74790;BME280;63318;52.406;13.416;2023-01-06T11:21:03;101179.61;;;8.13;88.51
74790;BME280;63318;52.406;13.416;2023-01-06T11:23:32;101177.36;;;8.16;88.58
74790;BME280;63318;52.406;13.416;2023-01-06T11:26:10;101172.84;;;8.19;88.59
74790;BME280;63318;52.406;13.416;2023-01-06T11:28:41;101167.80;;;8.23;88.68
74790;BME280;63318;52.406;13.416;2023-01-06T11:31:17;101159.48;;;8.25;88.68
74790;BME280;63318;52.406;13.416;2023-01-06T11:33:53;101165.10;;;8.28;88.62
74790;BME280;63318;52.406;13.416;2023-01-06T11:36:24;101160.71;;;8.30;88.53
74790;BME280;63318;52.406;13.416;2023-01-06T11:38:58;101159.65;;;8.32;88.46
74790;BME280;63318;52.406;13.416;2023-01-06T11:41:29;101153.90;;;8.33;88.47
74790;BME280;63318;52.406;13.416;2023-01-06T11:44:07;101152.28;;;8.35;88.54
74790;BME280;63318;52.406;13.416;2023-01-06T11:46:38;101156.64;;;8.37;88.69
74790;BME280;63318;52.406;13.416;2023-01-06T11:49:13;101157.94;;;8.39;88.62
74790;BME280;63318;52.406;13.416;2023-01-06T11:51:49;101147.34;;;8.41;88.78
74790;BME280;63318;52.406;13.416;2023-01-06T11:54:33;101145.43;;;8.43;88.57
74790;BME280;63318;52.406;13.416;2023-01-06T11:57:10;101150.06;;;8.45;88.56
74790;BME280;63318;52.406;13.416;2023-01-06T11:59:53;101147.55;;;8.47;88.36
74790;BME280;63318;52.406;13.416;2023-01-06T12:02:29;101157.07;;;8.49;88.52
74790;BME280;63318;52.406;13.416;2023-01-06T12:05:02;101150.95;;;8.52;88.45
74790;BME280;63318;52.406;13.416;2023-01-06T12:07:36;101149.70;;;8.53;88.66
74790;BME280;63318;52.406;13.416;2023-01-06T12:10:12;101137.23;;;8.55;88.52
74790;BME280;63318;52.406;13.416;2023-01-06T12:12:43;101131.98;;;8.58;88.57
74790;BME280;63318;52.406;13.416;2023-01-06T12:15:14;101129.52;;;8.61;88.68
74790;BME280;63318;52.406;13.416;2023-01-06T12:17:49;101127.23;;;8.63;88.75
74790;BME280;63318;52.406;13.416;2023-01-06T12:20:22;101127.02;;;8.67;88.51
74790;BME280;63318;52.406;13.416;2023-01-06T12:22:55;101119.63;;;8.69;88.89
74790;BME280;63318;52.406;13.416;2023-01-06T12:25:28;101124.36;;;8.71;88.75
74790;BME280;63318;52.406;13.416;2023-01-06T12:28:02;101123.59;;;8.74;88.50
74790;BME280;63318;52.406;13.416;2023-01-06T13:32:41;101103.59;;;9.67;87.88
74790;BME280;63318;52.406;13.416;2023-01-06T13:35:25;101105.92;;;9.67;87.79
74790;BME280;63318;52.406;13.416;2023-01-06T13:38:14;101109.52;;;9.70;87.73
74790;BME280;63318;52.406;13.416;2023-01-06T13:40:46;101111.70;;;9.72;87.63
74790;BME280;63318;52.406;13.416;2023-01-06T13:43:19;101113.83;;;9.73;87.54
74790;BME280;63318;52.406;13.416;2023-01-06T13:45:51;101117.66;;;9.74;87.25
74790;BME280;63318;52.406;13.416;2023-01-06T13:48:23;101115.99;;;9.74;87.22
74790;BME280;63318;52.406;13.416;2023-01-06T13:50:53;101119.79;;;9.76;86.85
74790;BME280;63318;52.406;13.416;2023-01-06T13:53:23;101123.42;;;9.78;86.83
74790;BME280;63318;52.406;13.416;2023-01-06T13:59:24;101125.39;;;9.81;86.40
74790;BME280;63318;52.406;13.416;2023-01-06T14:01:53;101134.77;;;9.81;86.41
74790;BME280;63318;52.406;13.416;2023-01-06T14:07:35;101130.73;;;9.81;86.19
74790;BME280;63318;52.406;13.416;2023-01-06T14:10:30;101135.39;;;9.81;86.26
74790;BME280;63318;52.406;13.416;2023-01-06T14:13:01;101138.65;;;9.80;86.10
74790;BME280;63318;52.406;13.416;2023-01-06T14:15:32;101147.33;;;9.81;86.09
74790;BME280;63318;52.406;13.416;2023-01-06T14:18:02;101148.89;;;9.81;86.01
74790;BME280;63318;52.406;13.416;2023-01-06T14:20:32;101157.91;;;9.81;86.05
74790;BME280;63318;52.406;13.416;2023-01-06T14:23:04;101161.30;;;9.81;85.86
74790;BME280;63318;52.406;13.416;2023-01-06T14:25:37;101161.35;;;9.80;85.83